Baltimore, Maryland
Traffic Map
Current Weather Conditions
Baltimore, Maryland
Scattered Clouds
Scattered Clouds
45°
Feels Like: 41°
Wind Chill: 41° Ceiling: Unl
Heat Index: 45° Visibility: 10mi
Dew Point: Wind: 8mph
Humidity: 21% Direction: 290° (WNW)
Pressure: 30.23in Gusts: 0mph
Raw Report DataKBWI 292154Z 29007KT 10SM SCT250 07/M14 A3023 RMK AO2 SLP238 T00721139
Traffic Incident Summary
Active as of:
Severity:
Category:
InformationThere was an issue retrieving the traffic information for this location. Please try a different location or try again shortly.
Advertisements
Track Severe Weather on mobile